sensor_id;sensor_type;location;lat;lon;timestamp;P1;durP1;ratioP1;P2;durP2;ratioP2
20348;SDS011;10332;50.208;18.988;2023-04-15T00:02:20;5.15;;;4.18;;
20348;SDS011;10332;50.208;18.988;2023-04-15T00:04:48;5.57;;;4.10;;
20348;SDS011;10332;50.208;18.988;2023-04-15T00:07:15;6.28;;;3.65;;
20348;SDS011;10332;50.208;18.988;2023-04-15T00:09:43;4.32;;;3.65;;
20348;SDS011;10332;50.208;18.988;2023-04-15T00:12:11;5.57;;;4.50;;
20348;SDS011;10332;50.208;18.988;2023-04-15T00:14:39;5.00;;;3.88;;
20348;SDS011;10332;50.208;18.988;2023-04-15T00:17:06;4.65;;;3.65;;
20348;SDS011;10332;50.208;18.988;2023-04-15T00:19:34;6.18;;;4.47;;
20348;SDS011;10332;50.208;18.988;2023-04-15T00:22:01;6.13;;;4.43;;
20348;SDS011;10332;50.208;18.988;2023-04-15T00:24:29;5.70;;;4.07;;
20348;SDS011;10332;50.208;18.988;2023-04-15T00:26:57;4.75;;;3.70;;
20348;SDS011;10332;50.208;18.988;2023-04-15T00:29:25;4.35;;;3.60;;
20348;SDS011;10332;50.208;18.988;2023-04-15T00:31:52;3.50;;;2.70;;
20348;SDS011;10332;50.208;18.988;2023-04-15T00:34:20;6.05;;;4.28;;
20348;SDS011;10332;50.208;18.988;2023-04-15T00:36:47;5.80;;;3.53;;
20348;SDS011;10332;50.208;18.988;2023-04-15T00:39:17;6.82;;;4.88;;
20348;SDS011;10332;50.208;18.988;2023-04-15T00:41:44;5.93;;;4.50;;
20348;SDS011;10332;50.208;18.988;2023-04-15T00:44:12;4.95;;;3.97;;
20348;SDS011;10332;50.208;18.988;2023-04-15T00:46:40;4.32;;;3.65;;
20348;SDS011;10332;50.208;18.988;2023-04-15T00:49:09;4.88;;;3.90;;
20348;SDS011;10332;50.208;18.988;2023-04-15T00:51:38;7.03;;;4.20;;
20348;SDS011;10332;50.208;18.988;2023-04-15T00:54:06;5.30;;;4.03;;
20348;SDS011;10332;50.208;18.988;2023-04-15T00:56:37;5.55;;;4.25;;
20348;SDS011;10332;50.208;18.988;2023-04-15T00:59:05;5.68;;;3.80;;
20348;SDS011;10332;50.208;18.988;2023-04-15T01:01:34;8.10;;;4.93;;
20348;SDS011;10332;50.208;18.988;2023-04-15T01:04:03;6.32;;;3.90;;
20348;SDS011;10332;50.208;18.988;2023-04-15T01:06:31;7.75;;;4.93;;
20348;SDS011;10332;50.208;18.988;2023-04-15T01:08:59;6.40;;;4.18;;
20348;SDS011;10332;50.208;18.988;2023-04-15T01:11:28;6.72;;;4.55;;
20348;SDS011;10332;50.208;18.988;2023-04-15T01:13:59;8.52;;;4.75;;
20348;SDS011;10332;50.208;18.988;2023-04-15T01:16:28;5.15;;;3.67;;
20348;SDS011;10332;50.208;18.988;2023-04-15T01:18:57;4.93;;;4.00;;
20348;SDS011;10332;50.208;18.988;2023-04-15T01:21:25;5.85;;;4.22;;
20348;SDS011;10332;50.208;18.988;2023-04-15T01:23:52;5.45;;;3.97;;
20348;SDS011;10332;50.208;18.988;2023-04-15T01:26:22;8.38;;;5.28;;
20348;SDS011;10332;50.208;18.988;2023-04-15T01:28:50;7.25;;;4.15;;
20348;SDS011;10332;50.208;18.988;2023-04-15T01:31:18;5.78;;;3.97;;
20348;SDS011;10332;50.208;18.988;2023-04-15T01:33:45;5.53;;;3.38;;
20348;SDS011;10332;50.208;18.988;2023-04-15T01:36:13;5.32;;;3.88;;
20348;SDS011;10332;50.208;18.988;2023-04-15T01:38:40;5.22;;;3.78;;
20348;SDS011;10332;50.208;18.988;2023-04-15T01:41:08;6.22;;;3.35;;
20348;SDS011;10332;50.208;18.988;2023-04-15T01:43:35;4.40;;;2.92;;
20348;SDS011;10332;50.208;18.988;2023-04-15T01:46:03;4.60;;;2.55;;
20348;SDS011;10332;50.208;18.988;2023-04-15T01:48:31;5.70;;;2.95;;
20348;SDS011;10332;50.208;18.988;2023-04-15T01:50:59;4.15;;;3.03;;
20348;SDS011;10332;50.208;18.988;2023-04-15T01:53:27;5.82;;;4.43;;
20348;SDS011;10332;50.208;18.988;2023-04-15T01:55:55;9.05;;;5.97;;
20348;SDS011;10332;50.208;18.988;2023-04-15T01:58:23;8.95;;;6.68;;
20348;SDS011;10332;50.208;18.988;2023-04-15T02:00:50;12.85;;;9.20;;
20348;SDS011;10332;50.208;18.988;2023-04-15T02:03:18;12.18;;;9.00;;
20348;SDS011;10332;50.208;18.988;2023-04-15T02:05:46;11.77;;;7.93;;
20348;SDS011;10332;50.208;18.988;2023-04-15T02:08:13;12.10;;;7.38;;
20348;SDS011;10332;50.208;18.988;2023-04-15T02:10:40;9.52;;;6.70;;
20348;SDS011;10332;50.208;18.988;2023-04-15T02:13:08;10.98;;;6.70;;
20348;SDS011;10332;50.208;18.988;2023-04-15T02:15:36;9.27;;;5.85;;
20348;SDS011;10332;50.208;18.988;2023-04-15T02:18:03;7.75;;;5.63;;
20348;SDS011;10332;50.208;18.988;2023-04-15T02:20:31;7.72;;;5.63;;
20348;SDS011;10332;50.208;18.988;2023-04-15T02:22:58;7.55;;;5.10;;
20348;SDS011;10332;50.208;18.988;2023-04-15T02:25:26;6.90;;;4.78;;
20348;SDS011;10332;50.208;18.988;2023-04-15T02:27:56;6.57;;;4.38;;
20348;SDS011;10332;50.208;18.988;2023-04-15T02:30:24;5.60;;;4.05;;
20348;SDS011;10332;50.208;18.988;2023-04-15T02:32:51;9.32;;;5.10;;
20348;SDS011;10332;50.208;18.988;2023-04-15T02:35:19;6.57;;;4.47;;
20348;SDS011;10332;50.208;18.988;2023-04-15T02:37:46;6.53;;;4.53;;
20348;SDS011;10332;50.208;18.988;2023-04-15T02:40:14;6.20;;;4.00;;
20348;SDS011;10332;50.208;18.988;2023-04-15T02:42:42;5.82;;;4.03;;
20348;SDS011;10332;50.208;18.988;2023-04-15T02:45:10;5.65;;;3.65;;
20348;SDS011;10332;50.208;18.988;2023-04-15T02:47:38;6.20;;;3.42;;
20348;SDS011;10332;50.208;18.988;2023-04-15T02:50:10;5.20;;;3.25;;
20348;SDS011;10332;50.208;18.988;2023-04-15T02:52:39;4.25;;;3.13;;
20348;SDS011;10332;50.208;18.988;2023-04-15T02:55:08;4.32;;;3.15;;
20348;SDS011;10332;50.208;18.988;2023-04-15T02:57:36;5.65;;;3.30;;
20348;SDS011;10332;50.208;18.988;2023-04-15T03:00:05;4.13;;;2.92;;
20348;SDS011;10332;50.208;18.988;2023-04-15T03:02:38;5.03;;;3.53;;
20348;SDS011;10332;50.208;18.988;2023-04-15T03:05:10;5.13;;;2.92;;
20348;SDS011;10332;50.208;18.988;2023-04-15T03:07:39;5.15;;;3.03;;
20348;SDS011;10332;50.208;18.988;2023-04-15T03:10:07;4.10;;;2.38;;
20348;SDS011;10332;50.208;18.988;2023-04-15T03:12:35;5.68;;;3.47;;
20348;SDS011;10332;50.208;18.988;2023-04-15T03:15:03;4.85;;;3.22;;
20348;SDS011;10332;50.208;18.988;2023-04-15T03:17:32;4.57;;;3.33;;
20348;SDS011;10332;50.208;18.988;2023-04-15T03:20:01;7.18;;;3.85;;
20348;SDS011;10332;50.208;18.988;2023-04-15T03:22:31;6.63;;;3.90;;
20348;SDS011;10332;50.208;18.988;2023-04-15T03:24:59;8.70;;;4.70;;
20348;SDS011;10332;50.208;18.988;2023-04-15T03:27:27;11.13;;;5.05;;
20348;SDS011;10332;50.208;18.988;2023-04-15T03:29:54;8.65;;;4.43;;
20348;SDS011;10332;50.208;18.988;2023-04-15T03:32:22;7.22;;;4.03;;
20348;SDS011;10332;50.208;18.988;2023-04-15T03:34:50;7.05;;;3.60;;
20348;SDS011;10332;50.208;18.988;2023-04-15T03:37:17;6.38;;;3.85;;
20348;SDS011;10332;50.208;18.988;2023-04-15T03:39:45;6.05;;;3.13;;
20348;SDS011;10332;50.208;18.988;2023-04-15T03:42:12;5.45;;;3.47;;
20348;SDS011;10332;50.208;18.988;2023-04-15T03:44:40;5.18;;;3.55;;
20348;SDS011;10332;50.208;18.988;2023-04-15T03:47:07;7.57;;;3.85;;
20348;SDS011;10332;50.208;18.988;2023-04-15T03:49:35;6.18;;;3.58;;
20348;SDS011;10332;50.208;18.988;2023-04-15T03:52:03;6.00;;;3.70;;
20348;SDS011;10332;50.208;18.988;2023-04-15T03:54:30;7.88;;;4.18;;
20348;SDS011;10332;50.208;18.988;2023-04-15T03:56:58;9.05;;;4.43;;
20348;SDS011;10332;50.208;18.988;2023-04-15T03:59:25;10.40;;;5.15;;
20348;SDS011;10332;50.208;18.988;2023-04-15T04:01:53;10.50;;;5.57;;
20348;SDS011;10332;50.208;18.988;2023-04-15T04:04:20;14.60;;;7.38;;
20348;SDS011;10332;50.208;18.988;2023-04-15T04:06:48;20.92;;;8.95;;
20348;SDS011;10332;50.208;18.988;2023-04-15T04:09:15;20.80;;;9.82;;
20348;SDS011;10332;50.208;18.988;2023-04-15T04:11:42;28.40;;;12.55;;
20348;SDS011;10332;50.208;18.988;2023-04-15T04:14:11;25.45;;;12.38;;
20348;SDS011;10332;50.208;18.988;2023-04-15T04:16:38;17.23;;;9.15;;
20348;SDS011;10332;50.208;18.988;2023-04-15T04:19:06;16.20;;;8.38;;
20348;SDS011;10332;50.208;18.988;2023-04-15T04:21:34;13.65;;;7.60;;
20348;SDS011;10332;50.208;18.988;2023-04-15T04:24:02;11.25;;;5.88;;
20348;SDS011;10332;50.208;18.988;2023-04-15T04:26:29;10.32;;;5.40;;
20348;SDS011;10332;50.208;18.988;2023-04-15T04:28:57;9.15;;;5.22;;
20348;SDS011;10332;50.208;18.988;2023-04-15T04:31:24;7.22;;;4.82;;
20348;SDS011;10332;50.208;18.988;2023-04-15T04:33:53;8.68;;;5.80;;
20348;SDS011;10332;50.208;18.988;2023-04-15T04:36:20;8.10;;;5.07;;
20348;SDS011;10332;50.208;18.988;2023-04-15T04:38:47;8.20;;;5.85;;
20348;SDS011;10332;50.208;18.988;2023-04-15T04:41:15;6.68;;;4.68;;
20348;SDS011;10332;50.208;18.988;2023-04-15T04:43:43;7.00;;;4.30;;
20348;SDS011;10332;50.208;18.988;2023-04-15T04:46:10;6.57;;;4.32;;
20348;SDS011;10332;50.208;18.988;2023-04-15T04:48:38;4.95;;;3.67;;
20348;SDS011;10332;50.208;18.988;2023-04-15T04:51:06;7.72;;;4.70;;
20348;SDS011;10332;50.208;18.988;2023-04-15T04:53:34;9.25;;;5.47;;
20348;SDS011;10332;50.208;18.988;2023-04-15T04:56:03;8.20;;;5.70;;
20348;SDS011;10332;50.208;18.988;2023-04-15T04:58:30;6.55;;;4.72;;
20348;SDS011;10332;50.208;18.988;2023-04-15T05:00:58;8.25;;;5.72;;
20348;SDS011;10332;50.208;18.988;2023-04-15T05:03:26;9.30;;;5.53;;
20348;SDS011;10332;50.208;18.988;2023-04-15T05:05:53;8.55;;;5.13;;
20348;SDS011;10332;50.208;18.988;2023-04-15T05:08:21;9.75;;;6.53;;
20348;SDS011;10332;50.208;18.988;2023-04-15T05:10:48;10.60;;;6.05;;
20348;SDS011;10332;50.208;18.988;2023-04-15T05:13:16;7.60;;;5.47;;
20348;SDS011;10332;50.208;18.988;2023-04-15T05:15:43;9.68;;;6.22;;
20348;SDS011;10332;50.208;18.988;2023-04-15T05:18:11;10.48;;;6.70;;
20348;SDS011;10332;50.208;18.988;2023-04-15T05:20:38;10.00;;;6.65;;
20348;SDS011;10332;50.208;18.988;2023-04-15T05:23:06;10.60;;;7.20;;
20348;SDS011;10332;50.208;18.988;2023-04-15T05:25:33;11.88;;;7.70;;
20348;SDS011;10332;50.208;18.988;2023-04-15T05:28:01;10.57;;;7.50;;
20348;SDS011;10332;50.208;18.988;2023-04-15T05:30:28;14.05;;;8.57;;
20348;SDS011;10332;50.208;18.988;2023-04-15T05:32:56;12.82;;;8.35;;
20348;SDS011;10332;50.208;18.988;2023-04-15T05:35:23;12.57;;;6.82;;
20348;SDS011;10332;50.208;18.988;2023-04-15T05:37:51;10.93;;;6.97;;
20348;SDS011;10332;50.208;18.988;2023-04-15T05:40:18;9.13;;;6.45;;
20348;SDS011;10332;50.208;18.988;2023-04-15T05:42:46;9.95;;;7.55;;
20348;SDS011;10332;50.208;18.988;2023-04-15T05:45:13;11.27;;;7.65;;
20348;SDS011;10332;50.208;18.988;2023-04-15T05:47:41;10.38;;;6.68;;
20348;SDS011;10332;50.208;18.988;2023-04-15T05:50:09;10.52;;;7.28;;
20348;SDS011;10332;50.208;18.988;2023-04-15T05:52:36;10.95;;;7.80;;
20348;SDS011;10332;50.208;18.988;2023-04-15T05:55:04;11.35;;;7.65;;
20348;SDS011;10332;50.208;18.988;2023-04-15T05:57:32;8.63;;;5.90;;
20348;SDS011;10332;50.208;18.988;2023-04-15T05:59:59;8.88;;;6.13;;
20348;SDS011;10332;50.208;18.988;2023-04-15T06:02:27;8.55;;;7.00;;
20348;SDS011;10332;50.208;18.988;2023-04-15T06:04:55;11.32;;;7.82;;
20348;SDS011;10332;50.208;18.988;2023-04-15T06:07:23;11.35;;;7.82;;
20348;SDS011;10332;50.208;18.988;2023-04-15T06:09:51;9.77;;;6.45;;
20348;SDS011;10332;50.208;18.988;2023-04-15T06:12:19;10.25;;;7.63;;
20348;SDS011;10332;50.208;18.988;2023-04-15T06:14:46;22.95;;;15.30;;
20348;SDS011;10332;50.208;18.988;2023-04-15T06:17:14;16.83;;;12.13;;
20348;SDS011;10332;50.208;18.988;2023-04-15T06:19:43;23.45;;;16.42;;
20348;SDS011;10332;50.208;18.988;2023-04-15T06:22:12;19.95;;;12.73;;
20348;SDS011;10332;50.208;18.988;2023-04-15T06:24:39;20.85;;;14.20;;
20348;SDS011;10332;50.208;18.988;2023-04-15T06:27:07;18.15;;;11.82;;
20348;SDS011;10332;50.208;18.988;2023-04-15T06:29:35;17.42;;;11.27;;
20348;SDS011;10332;50.208;18.988;2023-04-15T06:32:03;11.50;;;7.03;;
20348;SDS011;10332;50.208;18.988;2023-04-15T06:34:30;14.75;;;9.85;;
20348;SDS011;10332;50.208;18.988;2023-04-15T06:36:58;22.02;;;13.30;;
20348;SDS011;10332;50.208;18.988;2023-04-15T06:39:27;11.02;;;7.28;;
20348;SDS011;10332;50.208;18.988;2023-04-15T06:41:55;14.40;;;9.48;;
20348;SDS011;10332;50.208;18.988;2023-04-15T06:44:23;10.80;;;6.43;;
20348;SDS011;10332;50.208;18.988;2023-04-15T06:46:50;8.20;;;5.63;;
20348;SDS011;10332;50.208;18.988;2023-04-15T06:49:17;9.85;;;6.20;;
20348;SDS011;10332;50.208;18.988;2023-04-15T06:51:45;8.60;;;5.07;;
20348;SDS011;10332;50.208;18.988;2023-04-15T06:54:12;6.50;;;4.07;;
20348;SDS011;10332;50.208;18.988;2023-04-15T06:56:40;9.32;;;6.35;;
20348;SDS011;10332;50.208;18.988;2023-04-15T06:59:08;8.18;;;5.22;;
20348;SDS011;10332;50.208;18.988;2023-04-15T07:01:36;5.82;;;4.35;;
20348;SDS011;10332;50.208;18.988;2023-04-15T07:04:03;6.63;;;4.50;;
20348;SDS011;10332;50.208;18.988;2023-04-15T07:06:32;8.60;;;5.90;;
20348;SDS011;10332;50.208;18.988;2023-04-15T07:08:59;7.95;;;5.45;;
20348;SDS011;10332;50.208;18.988;2023-04-15T07:11:29;7.18;;;5.35;;
20348;SDS011;10332;50.208;18.988;2023-04-15T07:13:57;14.35;;;9.73;;
20348;SDS011;10332;50.208;18.988;2023-04-15T07:16:24;16.42;;;11.18;;
20348;SDS011;10332;50.208;18.988;2023-04-15T07:18:55;12.43;;;9.57;;
20348;SDS011;10332;50.208;18.988;2023-04-15T07:21:23;8.15;;;6.38;;
20348;SDS011;10332;50.208;18.988;2023-04-15T07:23:51;5.97;;;4.50;;
20348;SDS011;10332;50.208;18.988;2023-04-15T07:26:19;5.30;;;4.28;;
20348;SDS011;10332;50.208;18.988;2023-04-15T07:28:46;6.47;;;4.28;;
20348;SDS011;10332;50.208;18.988;2023-04-15T07:31:15;11.90;;;7.72;;
20348;SDS011;10332;50.208;18.988;2023-04-15T07:33:43;9.45;;;6.68;;
20348;SDS011;10332;50.208;18.988;2023-04-15T07:36:10;12.60;;;8.60;;
20348;SDS011;10332;50.208;18.988;2023-04-15T07:38:38;13.00;;;9.25;;
20348;SDS011;10332;50.208;18.988;2023-04-15T07:41:06;8.60;;;6.25;;
20348;SDS011;10332;50.208;18.988;2023-04-15T07:43:33;8.40;;;5.90;;
20348;SDS011;10332;50.208;18.988;2023-04-15T07:46:01;6.47;;;4.78;;
20348;SDS011;10332;50.208;18.988;2023-04-15T07:48:28;5.00;;;2.72;;
20348;SDS011;10332;50.208;18.988;2023-04-15T07:50:57;5.10;;;2.70;;
20348;SDS011;10332;50.208;18.988;2023-04-15T07:53:25;2.95;;;2.50;;
20348;SDS011;10332;50.208;18.988;2023-04-15T07:55:52;5.07;;;3.38;;
20348;SDS011;10332;50.208;18.988;2023-04-15T07:58:20;4.05;;;2.60;;
20348;SDS011;10332;50.208;18.988;2023-04-15T08:00:47;1.65;;;1.20;;
20348;SDS011;10332;50.208;18.988;2023-04-15T08:03:14;2.08;;;1.50;;
20348;SDS011;10332;50.208;18.988;2023-04-15T08:05:42;1.58;;;1.42;;
20348;SDS011;10332;50.208;18.988;2023-04-15T08:08:11;2.13;;;1.40;;
20348;SDS011;10332;50.208;18.988;2023-04-15T08:10:38;1.85;;;1.40;;
20348;SDS011;10332;50.208;18.988;2023-04-15T08:13:06;1.95;;;1.60;;
20348;SDS011;10332;50.208;18.988;2023-04-15T08:15:34;2.55;;;1.42;;
20348;SDS011;10332;50.208;18.988;2023-04-15T08:18:01;1.48;;;1.10;;
20348;SDS011;10332;50.208;18.988;2023-04-15T08:20:29;1.38;;;0.82;;
20348;SDS011;10332;50.208;18.988;2023-04-15T08:22:56;2.33;;;0.60;;
20348;SDS011;10332;50.208;18.988;2023-04-15T08:25:24;1.48;;;0.80;;
20348;SDS011;10332;50.208;18.988;2023-04-15T08:27:51;1.25;;;0.88;;
20348;SDS011;10332;50.208;18.988;2023-04-15T08:30:21;0.80;;;0.70;;
20348;SDS011;10332;50.208;18.988;2023-04-15T08:32:49;1.25;;;0.75;;
20348;SDS011;10332;50.208;18.988;2023-04-15T08:35:17;3.63;;;0.82;;
20348;SDS011;10332;50.208;18.988;2023-04-15T08:37:44;0.82;;;0.70;;
20348;SDS011;10332;50.208;18.988;2023-04-15T08:40:12;0.50;;;0.43;;
20348;SDS011;10332;50.208;18.988;2023-04-15T08:42:43;0.73;;;0.55;;
20348;SDS011;10332;50.208;18.988;2023-04-15T08:45:14;0.77;;;0.60;;
20348;SDS011;10332;50.208;18.988;2023-04-15T08:47:44;0.60;;;0.60;;
20348;SDS011;10332;50.208;18.988;2023-04-15T08:50:15;1.98;;;0.85;;
20348;SDS011;10332;50.208;18.988;2023-04-15T08:52:43;0.80;;;0.45;;
20348;SDS011;10332;50.208;18.988;2023-04-15T08:55:11;1.00;;;0.57;;
20348;SDS011;10332;50.208;18.988;2023-04-15T08:57:41;0.50;;;0.50;;
20348;SDS011;10332;50.208;18.988;2023-04-15T09:00:09;0.85;;;0.50;;
20348;SDS011;10332;50.208;18.988;2023-04-15T09:02:37;0.55;;;0.50;;
20348;SDS011;10332;50.208;18.988;2023-04-15T09:05:07;0.95;;;0.50;;
20348;SDS011;10332;50.208;18.988;2023-04-15T09:07:34;1.17;;;0.60;;
20348;SDS011;10332;50.208;18.988;2023-04-15T09:10:02;0.75;;;0.50;;
20348;SDS011;10332;50.208;18.988;2023-04-15T09:12:33;0.50;;;0.47;;
20348;SDS011;10332;50.208;18.988;2023-04-15T09:15:02;0.73;;;0.47;;
20348;SDS011;10332;50.208;18.988;2023-04-15T09:17:31;0.40;;;0.40;;
20348;SDS011;10332;50.208;18.988;2023-04-15T09:20:06;0.73;;;0.60;;
20348;SDS011;10332;50.208;18.988;2023-04-15T09:22:36;1.00;;;0.90;;
20348;SDS011;10332;50.208;18.988;2023-04-15T09:25:28;1.23;;;1.13;;
20348;SDS011;10332;50.208;18.988;2023-04-15T09:27:59;1.00;;;0.70;;
20348;SDS011;10332;50.208;18.988;2023-04-15T09:30:28;1.25;;;0.88;;
20348;SDS011;10332;50.208;18.988;2023-04-15T09:32:58;0.70;;;0.70;;
20348;SDS011;10332;50.208;18.988;2023-04-15T09:35:28;2.17;;;2.08;;
20348;SDS011;10332;50.208;18.988;2023-04-15T09:38:03;1.88;;;1.25;;
20348;SDS011;10332;50.208;18.988;2023-04-15T09:40:37;1.65;;;1.55;;
20348;SDS011;10332;50.208;18.988;2023-04-15T09:43:08;1.90;;;1.80;;
20348;SDS011;10332;50.208;18.988;2023-04-15T09:45:38;1.90;;;1.48;;
20348;SDS011;10332;50.208;18.988;2023-04-15T09:48:18;1.67;;;0.90;;
20348;SDS011;10332;50.208;18.988;2023-04-15T09:50:57;2.15;;;1.95;;
20348;SDS011;10332;50.208;18.988;2023-04-15T09:53:27;1.70;;;1.60;;
20348;SDS011;10332;50.208;18.988;2023-04-15T09:55:58;2.20;;;2.00;;
20348;SDS011;10332;50.208;18.988;2023-04-15T09:58:29;5.07;;;4.57;;
20348;SDS011;10332;50.208;18.988;2023-04-15T10:01:02;4.18;;;3.72;;
20348;SDS011;10332;50.208;18.988;2023-04-15T10:03:35;1.42;;;1.13;;
20348;SDS011;10332;50.208;18.988;2023-04-15T10:06:04;1.55;;;1.42;;
20348;SDS011;10332;50.208;18.988;2023-04-15T10:08:32;1.55;;;1.45;;
20348;SDS011;10332;50.208;18.988;2023-04-15T10:11:01;0.80;;;0.80;;
20348;SDS011;10332;50.208;18.988;2023-04-15T10:13:30;4.78;;;4.38;;
20348;SDS011;10332;50.208;18.988;2023-04-15T10:18:43;2.38;;;2.17;;
20348;SDS011;10332;50.208;18.988;2023-04-15T10:21:12;2.00;;;1.80;;
20348;SDS011;10332;50.208;18.988;2023-04-15T10:23:44;1.50;;;1.40;;
20348;SDS011;10332;50.208;18.988;2023-04-15T10:26:13;2.00;;;1.30;;
20348;SDS011;10332;50.208;18.988;2023-04-15T10:28:43;2.50;;;2.30;;
20348;SDS011;10332;50.208;18.988;2023-04-15T10:31:13;1.50;;;1.40;;
20348;SDS011;10332;50.208;18.988;2023-04-15T10:33:42;1.83;;;1.40;;
20348;SDS011;10332;50.208;18.988;2023-04-15T10:36:11;1.90;;;1.75;;
20348;SDS011;10332;50.208;18.988;2023-04-15T10:38:41;2.03;;;1.63;;
20348;SDS011;10332;50.208;18.988;2023-04-15T10:41:12;1.85;;;1.67;;
20348;SDS011;10332;50.208;18.988;2023-04-15T10:43:45;2.45;;;2.22;;
20348;SDS011;10332;50.208;18.988;2023-04-15T10:46:37;1.40;;;1.30;;
20348;SDS011;10332;50.208;18.988;2023-04-15T10:49:07;3.08;;;2.78;;
20348;SDS011;10332;50.208;18.988;2023-04-15T10:51:52;4.32;;;3.83;;
20348;SDS011;10332;50.208;18.988;2023-04-15T10:59:29;7.68;;;6.60;;
20348;SDS011;10332;50.208;18.988;2023-04-15T11:02:06;1.30;;;1.20;;
20348;SDS011;10332;50.208;18.988;2023-04-15T11:04:50;2.40;;;1.60;;
20348;SDS011;10332;50.208;18.988;2023-04-15T11:12:45;2.15;;;1.33;;
20348;SDS011;10332;50.208;18.988;2023-04-15T11:15:27;1.73;;;1.50;;
20348;SDS011;10332;50.208;18.988;2023-04-15T11:18:10;1.33;;;1.23;;
20348;SDS011;10332;50.208;18.988;2023-04-15T11:20:41;1.25;;;1.15;;
20348;SDS011;10332;50.208;18.988;2023-04-15T11:23:27;1.00;;;1.00;;
20348;SDS011;10332;50.208;18.988;2023-04-15T11:25:55;1.65;;;1.17;;
20348;SDS011;10332;50.208;18.988;2023-04-15T11:28:26;1.30;;;1.20;;
20348;SDS011;10332;50.208;18.988;2023-04-15T11:30:57;1.70;;;1.40;;
20348;SDS011;10332;50.208;18.988;2023-04-15T11:33:32;1.33;;;1.10;;
20348;SDS011;10332;50.208;18.988;2023-04-15T11:36:00;1.00;;;1.00;;
20348;SDS011;10332;50.208;18.988;2023-04-15T11:38:30;1.40;;;1.27;;
20348;SDS011;10332;50.208;18.988;2023-04-15T11:40:58;1.25;;;1.10;;
20348;SDS011;10332;50.208;18.988;2023-04-15T11:43:25;1.27;;;1.17;;
20348;SDS011;10332;50.208;18.988;2023-04-15T11:45:54;1.50;;;1.13;;
20348;SDS011;10332;50.208;18.988;2023-04-15T11:48:28;1.55;;;1.40;;
20348;SDS011;10332;50.208;18.988;2023-04-15T11:50:59;2.05;;;1.58;;
20348;SDS011;10332;50.208;18.988;2023-04-15T11:53:40;1.50;;;1.40;;
20348;SDS011;10332;50.208;18.988;2023-04-15T11:56:20;2.40;;;1.88;;
20348;SDS011;10332;50.208;18.988;2023-04-15T11:58:54;1.77;;;1.45;;
20348;SDS011;10332;50.208;18.988;2023-04-15T12:01:31;1.65;;;1.40;;
20348;SDS011;10332;50.208;18.988;2023-04-15T12:04:15;1.63;;;1.52;;
20348;SDS011;10332;50.208;18.988;2023-04-15T12:06:51;1.60;;;1.50;;
20348;SDS011;10332;50.208;18.988;2023-04-15T12:09:19;2.00;;;1.80;;
20348;SDS011;10332;50.208;18.988;2023-04-15T12:11:48;1.90;;;1.67;;
20348;SDS011;10332;50.208;18.988;2023-04-15T12:14:26;1.63;;;1.52;;
20348;SDS011;10332;50.208;18.988;2023-04-15T12:16:59;1.35;;;1.25;;
20348;SDS011;10332;50.208;18.988;2023-04-15T12:19:30;1.60;;;1.50;;
20348;SDS011;10332;50.208;18.988;2023-04-15T12:22:14;1.73;;;1.52;;
20348;SDS011;10332;50.208;18.988;2023-04-15T12:24:44;1.60;;;1.50;;
20348;SDS011;10332;50.208;18.988;2023-04-15T12:27:14;1.17;;;1.08;;
20348;SDS011;10332;50.208;18.988;2023-04-15T12:29:43;2.28;;;1.80;;
20348;SDS011;10332;50.208;18.988;2023-04-15T12:32:11;1.60;;;1.50;;
20348;SDS011;10332;50.208;18.988;2023-04-15T12:34:49;2.00;;;1.80;;
20348;SDS011;10332;50.208;18.988;2023-04-15T12:37:18;1.58;;;1.48;;
20348;SDS011;10332;50.208;18.988;2023-04-15T12:39:47;1.50;;;1.40;;
20348;SDS011;10332;50.208;18.988;2023-04-15T12:42:15;1.30;;;1.20;;
20348;SDS011;10332;50.208;18.988;2023-04-15T12:44:45;1.60;;;1.50;;
20348;SDS011;10332;50.208;18.988;2023-04-15T12:47:12;1.50;;;1.40;;
20348;SDS011;10332;50.208;18.988;2023-04-15T12:49:40;2.17;;;1.63;;
20348;SDS011;10332;50.208;18.988;2023-04-15T12:52:08;2.70;;;1.85;;
20348;SDS011;10332;50.208;18.988;2023-04-15T12:54:35;3.25;;;2.00;;
20348;SDS011;10332;50.208;18.988;2023-04-15T12:57:03;2.72;;;2.15;;
20348;SDS011;10332;50.208;18.988;2023-04-15T12:59:33;2.88;;;2.00;;
20348;SDS011;10332;50.208;18.988;2023-04-15T13:02:02;2.13;;;1.73;;
20348;SDS011;10332;50.208;18.988;2023-04-15T13:04:30;3.10;;;2.15;;
20348;SDS011;10332;50.208;18.988;2023-04-15T13:06:57;2.90;;;1.90;;
20348;SDS011;10332;50.208;18.988;2023-04-15T13:09:25;3.70;;;2.20;;
20348;SDS011;10332;50.208;18.988;2023-04-15T13:11:52;3.00;;;1.90;;
20348;SDS011;10332;50.208;18.988;2023-04-15T13:14:20;3.97;;;2.50;;
20348;SDS011;10332;50.208;18.988;2023-04-15T13:16:48;4.53;;;2.63;;
20348;SDS011;10332;50.208;18.988;2023-04-15T13:19:15;3.22;;;2.50;;
20348;SDS011;10332;50.208;18.988;2023-04-15T13:21:43;2.50;;;2.13;;
20348;SDS011;10332;50.208;18.988;2023-04-15T13:24:10;2.63;;;1.80;;
20348;SDS011;10332;50.208;18.988;2023-04-15T13:26:38;2.67;;;1.80;;
20348;SDS011;10332;50.208;18.988;2023-04-15T13:29:05;4.30;;;2.45;;
20348;SDS011;10332;50.208;18.988;2023-04-15T13:31:33;5.53;;;2.40;;
20348;SDS011;10332;50.208;18.988;2023-04-15T13:34:00;2.20;;;1.90;;
20348;SDS011;10332;50.208;18.988;2023-04-15T13:36:28;2.83;;;2.53;;
20348;SDS011;10332;50.208;18.988;2023-04-15T13:38:56;2.25;;;1.88;;
20348;SDS011;10332;50.208;18.988;2023-04-15T13:41:23;3.92;;;1.95;;
20348;SDS011;10332;50.208;18.988;2023-04-15T13:43:51;2.67;;;1.98;;
20348;SDS011;10332;50.208;18.988;2023-04-15T13:46:18;2.67;;;2.20;;
20348;SDS011;10332;50.208;18.988;2023-04-15T13:48:46;2.40;;;1.95;;
20348;SDS011;10332;50.208;18.988;2023-04-15T13:51:13;2.08;;;1.88;;
20348;SDS011;10332;50.208;18.988;2023-04-15T13:53:41;2.85;;;2.20;;
20348;SDS011;10332;50.208;18.988;2023-04-15T13:56:08;3.22;;;2.08;;
20348;SDS011;10332;50.208;18.988;2023-04-15T13:58:36;2.17;;;1.73;;
20348;SDS011;10332;50.208;18.988;2023-04-15T14:01:07;3.08;;;1.83;;
20348;SDS011;10332;50.208;18.988;2023-04-15T14:03:34;2.17;;;1.73;;
20348;SDS011;10332;50.208;18.988;2023-04-15T14:06:03;3.28;;;1.73;;
20348;SDS011;10332;50.208;18.988;2023-04-15T14:08:34;2.47;;;2.00;;
20348;SDS011;10332;50.208;18.988;2023-04-15T14:11:01;2.63;;;2.20;;
20348;SDS011;10332;50.208;18.988;2023-04-15T14:13:29;2.90;;;1.80;;
20348;SDS011;10332;50.208;18.988;2023-04-15T14:15:56;5.18;;;2.90;;
20348;SDS011;10332;50.208;18.988;2023-04-15T14:18:24;3.75;;;2.30;;
20348;SDS011;10332;50.208;18.988;2023-04-15T14:20:51;2.88;;;2.05;;
20348;SDS011;10332;50.208;18.988;2023-04-15T14:23:19;3.38;;;2.20;;
20348;SDS011;10332;50.208;18.988;2023-04-15T14:25:47;4.50;;;2.47;;
20348;SDS011;10332;50.208;18.988;2023-04-15T14:28:17;2.67;;;1.95;;
20348;SDS011;10332;50.208;18.988;2023-04-15T14:30:44;2.63;;;1.90;;
20348;SDS011;10332;50.208;18.988;2023-04-15T14:33:12;8.18;;;5.90;;
20348;SDS011;10332;50.208;18.988;2023-04-15T14:35:39;8.10;;;5.93;;
20348;SDS011;10332;50.208;18.988;2023-04-15T14:38:07;2.90;;;2.25;;
20348;SDS011;10332;50.208;18.988;2023-04-15T14:40:37;2.45;;;1.90;;
20348;SDS011;10332;50.208;18.988;2023-04-15T14:43:07;2.60;;;2.10;;
20348;SDS011;10332;50.208;18.988;2023-04-15T14:45:34;5.07;;;3.78;;
20348;SDS011;10332;50.208;18.988;2023-04-15T14:48:08;4.88;;;2.92;;
20348;SDS011;10332;50.208;18.988;2023-04-15T14:50:35;3.28;;;2.70;;
20348;SDS011;10332;50.208;18.988;2023-04-15T14:53:03;2.72;;;2.30;;
20348;SDS011;10332;50.208;18.988;2023-04-15T14:55:30;9.65;;;6.18;;